sensor_id;sensor_type;location;lat;lon;timestamp;temperature;humidity
68766;DHT22;55756;45.582;11.484;2022-11-20T00:01:09;9.50;75.60
68766;DHT22;55756;45.582;11.484;2022-11-20T00:03:36;9.50;76.10
68766;DHT22;55756;45.582;11.484;2022-11-20T00:06:03;9.50;76.40
68766;DHT22;55756;45.582;11.484;2022-11-20T00:08:29;9.40;76.70
68766;DHT22;55756;45.582;11.484;2022-11-20T00:10:55;9.20;77.00
68766;DHT22;55756;45.582;11.484;2022-11-20T00:13:21;9.20;77.10
68766;DHT22;55756;45.582;11.484;2022-11-20T00:15:47;9.20;77.20
68766;DHT22;55756;45.582;11.484;2022-11-20T00:18:13;9.10;77.30
68766;DHT22;55756;45.582;11.484;2022-11-20T00:20:39;9.10;77.40
68766;DHT22;55756;45.582;11.484;2022-11-20T00:23:05;9.00;77.70
68766;DHT22;55756;45.582;11.484;2022-11-20T00:25:34;8.90;77.90
68766;DHT22;55756;45.582;11.484;2022-11-20T00:28:01;8.60;78.50
68766;DHT22;55756;45.582;11.484;2022-11-20T00:30:26;8.60;78.90
68766;DHT22;55756;45.582;11.484;2022-11-20T00:32:52;8.60;79.00
68766;DHT22;55756;45.582;11.484;2022-11-20T00:35:18;8.70;78.80
68766;DHT22;55756;45.582;11.484;2022-11-20T00:37:44;8.70;78.80
68766;DHT22;55756;45.582;11.484;2022-11-20T00:40:10;8.70;79.00
68766;DHT22;55756;45.582;11.484;2022-11-20T00:42:36;8.60;78.80
68766;DHT22;55756;45.582;11.484;2022-11-20T00:45:01;8.60;78.90
68766;DHT22;55756;45.582;11.484;2022-11-20T00:47:27;8.60;79.00
68766;DHT22;55756;45.582;11.484;2022-11-20T00:49:53;8.50;78.90
68766;DHT22;55756;45.582;11.484;2022-11-20T00:52:19;8.40;79.00
68766;DHT22;55756;45.582;11.484;2022-11-20T00:54:44;8.40;79.00
68766;DHT22;55756;45.582;11.484;2022-11-20T00:57:11;8.40;79.10
68766;DHT22;55756;45.582;11.484;2022-11-20T00:59:37;8.40;79.30
68766;DHT22;55756;45.582;11.484;2022-11-20T01:02:03;8.30;79.50
68766;DHT22;55756;45.582;11.484;2022-11-20T01:04:29;8.30;79.70
68766;DHT22;55756;45.582;11.484;2022-11-20T01:06:54;8.30;79.70
68766;DHT22;55756;45.582;11.484;2022-11-20T01:09:20;8.30;79.70
68766;DHT22;55756;45.582;11.484;2022-11-20T01:11:46;8.30;79.70
68766;DHT22;55756;45.582;11.484;2022-11-20T01:14:14;8.20;80.00
68766;DHT22;55756;45.582;11.484;2022-11-20T01:16:44;8.20;80.00
68766;DHT22;55756;45.582;11.484;2022-11-20T01:19:14;8.10;80.10
68766;DHT22;55756;45.582;11.484;2022-11-20T01:21:41;8.10;80.20
68766;DHT22;55756;45.582;11.484;2022-11-20T01:24:10;8.10;80.40
68766;DHT22;55756;45.582;11.484;2022-11-20T01:26:38;8.10;80.60
68766;DHT22;55756;45.582;11.484;2022-11-20T01:29:05;8.00;80.70
68766;DHT22;55756;45.582;11.484;2022-11-20T01:31:33;8.00;80.80
68766;DHT22;55756;45.582;11.484;2022-11-20T01:34:02;7.90;80.80
68766;DHT22;55756;45.582;11.484;2022-11-20T01:36:29;7.90;81.00
68766;DHT22;55756;45.582;11.484;2022-11-20T01:38:58;7.80;81.20
68766;DHT22;55756;45.582;11.484;2022-11-20T01:41:26;7.90;81.30
68766;DHT22;55756;45.582;11.484;2022-11-20T01:44:12;7.80;81.40
68766;DHT22;55756;45.582;11.484;2022-11-20T01:46:50;7.70;81.50
68766;DHT22;55756;45.582;11.484;2022-11-20T01:49:52;7.70;81.60
68766;DHT22;55756;45.582;11.484;2022-11-20T01:52:24;7.60;81.50
68766;DHT22;55756;45.582;11.484;2022-11-20T01:55:00;7.60;81.60
68766;DHT22;55756;45.582;11.484;2022-11-20T01:57:28;7.60;81.70
68766;DHT22;55756;45.582;11.484;2022-11-20T02:00:02;7.60;81.80
68766;DHT22;55756;45.582;11.484;2022-11-20T02:02:39;7.50;81.70
68766;DHT22;55756;45.582;11.484;2022-11-20T02:05:35;7.50;81.70
68766;DHT22;55756;45.582;11.484;2022-11-20T02:08:03;7.50;81.50
68766;DHT22;55756;45.582;11.484;2022-11-20T02:10:30;7.50;81.60
68766;DHT22;55756;45.582;11.484;2022-11-20T02:12:56;7.50;82.00
68766;DHT22;55756;45.582;11.484;2022-11-20T02:15:41;7.50;82.00
68766;DHT22;55756;45.582;11.484;2022-11-20T02:18:09;7.40;82.00
68766;DHT22;55756;45.582;11.484;2022-11-20T02:20:35;7.40;82.00
68766;DHT22;55756;45.582;11.484;2022-11-20T02:23:09;7.30;82.10
68766;DHT22;55756;45.582;11.484;2022-11-20T02:25:37;7.30;82.10
68766;DHT22;55756;45.582;11.484;2022-11-20T02:28:05;7.30;82.20
68766;DHT22;55756;45.582;11.484;2022-11-20T02:30:31;7.20;82.40
68766;DHT22;55756;45.582;11.484;2022-11-20T02:32:58;7.20;82.40
68766;DHT22;55756;45.582;11.484;2022-11-20T02:37:54;7.20;82.50
68766;DHT22;55756;45.582;11.484;2022-11-20T02:40:20;7.20;82.60
68766;DHT22;55756;45.582;11.484;2022-11-20T02:42:47;7.20;82.60
68766;DHT22;55756;45.582;11.484;2022-11-20T02:45:13;7.20;82.70
68766;DHT22;55756;45.582;11.484;2022-11-20T02:47:39;7.20;82.70
68766;DHT22;55756;45.582;11.484;2022-11-20T02:50:05;7.20;82.70
68766;DHT22;55756;45.582;11.484;2022-11-20T02:52:31;7.20;82.80
68766;DHT22;55756;45.582;11.484;2022-11-20T02:54:57;7.20;82.90
68766;DHT22;55756;45.582;11.484;2022-11-20T02:57:23;7.20;82.90
68766;DHT22;55756;45.582;11.484;2022-11-20T02:59:49;7.10;83.10
68766;DHT22;55756;45.582;11.484;2022-11-20T03:02:15;7.10;83.00
68766;DHT22;55756;45.582;11.484;2022-11-20T03:04:40;7.10;83.00
68766;DHT22;55756;45.582;11.484;2022-11-20T03:07:07;7.00;83.00
68766;DHT22;55756;45.582;11.484;2022-11-20T03:09:33;7.00;83.00
68766;DHT22;55756;45.582;11.484;2022-11-20T03:11:59;7.00;83.30
68766;DHT22;55756;45.582;11.484;2022-11-20T03:14:25;6.90;83.20
68766;DHT22;55756;45.582;11.484;2022-11-20T03:16:51;6.80;83.60
68766;DHT22;55756;45.582;11.484;2022-11-20T03:19:16;6.80;83.90
68766;DHT22;55756;45.582;11.484;2022-11-20T03:21:42;6.70;83.80
68766;DHT22;55756;45.582;11.484;2022-11-20T03:24:09;6.60;83.80
68766;DHT22;55756;45.582;11.484;2022-11-20T03:26:35;6.50;84.20
68766;DHT22;55756;45.582;11.484;2022-11-20T03:29:02;6.50;84.30
68766;DHT22;55756;45.582;11.484;2022-11-20T03:31:34;6.50;84.30
68766;DHT22;55756;45.582;11.484;2022-11-20T03:34:01;6.60;84.10
68766;DHT22;55756;45.582;11.484;2022-11-20T03:36:28;6.60;84.00
68766;DHT22;55756;45.582;11.484;2022-11-20T03:38:55;6.60;84.10
68766;DHT22;55756;45.582;11.484;2022-11-20T03:41:26;6.70;84.20
68766;DHT22;55756;45.582;11.484;2022-11-20T03:44:00;6.80;84.00
68766;DHT22;55756;45.582;11.484;2022-11-20T03:46:27;6.80;84.00
68766;DHT22;55756;45.582;11.484;2022-11-20T03:48:53;6.80;84.10
68766;DHT22;55756;45.582;11.484;2022-11-20T03:51:24;6.80;84.00
68766;DHT22;55756;45.582;11.484;2022-11-20T03:53:52;6.80;83.90
68766;DHT22;55756;45.582;11.484;2022-11-20T03:56:21;6.90;83.70
68766;DHT22;55756;45.582;11.484;2022-11-20T03:58:48;6.80;83.70
68766;DHT22;55756;45.582;11.484;2022-11-20T04:01:16;6.80;83.80
68766;DHT22;55756;45.582;11.484;2022-11-20T04:03:43;6.90;83.80
68766;DHT22;55756;45.582;11.484;2022-11-20T04:06:12;6.90;83.60
68766;DHT22;55756;45.582;11.484;2022-11-20T04:08:38;6.80;83.70
68766;DHT22;55756;45.582;11.484;2022-11-20T04:11:09;6.80;83.40
68766;DHT22;55756;45.582;11.484;2022-11-20T04:13:35;6.60;83.00
68766;DHT22;55756;45.582;11.484;2022-11-20T04:16:01;6.50;82.70
68766;DHT22;55756;45.582;11.484;2022-11-20T04:18:26;6.50;82.90
68766;DHT22;55756;45.582;11.484;2022-11-20T04:20:52;6.40;83.20
68766;DHT22;55756;45.582;11.484;2022-11-20T04:23:18;6.40;83.20
68766;DHT22;55756;45.582;11.484;2022-11-20T04:25:44;6.30;83.40
68766;DHT22;55756;45.582;11.484;2022-11-20T04:28:10;6.30;83.10
68766;DHT22;55756;45.582;11.484;2022-11-20T04:30:35;6.20;83.20
68766;DHT22;55756;45.582;11.484;2022-11-20T04:33:01;6.20;83.10
68766;DHT22;55756;45.582;11.484;2022-11-20T04:35:27;6.10;83.50
68766;DHT22;55756;45.582;11.484;2022-11-20T04:37:53;6.20;83.40
68766;DHT22;55756;45.582;11.484;2022-11-20T04:40:18;6.20;83.50
68766;DHT22;55756;45.582;11.484;2022-11-20T04:42:44;6.20;83.50
68766;DHT22;55756;45.582;11.484;2022-11-20T04:45:10;5.90;84.30
68766;DHT22;55756;45.582;11.484;2022-11-20T04:47:36;5.80;84.80
68766;DHT22;55756;45.582;11.484;2022-11-20T04:50:02;5.90;84.90
68766;DHT22;55756;45.582;11.484;2022-11-20T04:52:27;5.90;84.80
68766;DHT22;55756;45.582;11.484;2022-11-20T04:54:53;5.90;84.70
68766;DHT22;55756;45.582;11.484;2022-11-20T04:57:20;5.90;84.60
68766;DHT22;55756;45.582;11.484;2022-11-20T04:59:45;5.90;84.40
68766;DHT22;55756;45.582;11.484;2022-11-20T05:02:11;5.90;84.40
68766;DHT22;55756;45.582;11.484;2022-11-20T05:04:37;5.90;84.30
68766;DHT22;55756;45.582;11.484;2022-11-20T05:07:03;5.90;84.30
68766;DHT22;55756;45.582;11.484;2022-11-20T05:09:29;5.90;84.30
68766;DHT22;55756;45.582;11.484;2022-11-20T05:11:55;5.90;84.20
68766;DHT22;55756;45.582;11.484;2022-11-20T05:14:21;6.00;84.10
68766;DHT22;55756;45.582;11.484;2022-11-20T05:16:47;6.00;84.10
68766;DHT22;55756;45.582;11.484;2022-11-20T05:19:12;5.80;84.00
68766;DHT22;55756;45.582;11.484;2022-11-20T05:21:38;5.50;85.10
68766;DHT22;55756;45.582;11.484;2022-11-20T05:24:04;5.50;85.60
68766;DHT22;55756;45.582;11.484;2022-11-20T05:26:31;5.60;85.30
68766;DHT22;55756;45.582;11.484;2022-11-20T05:28:57;5.50;84.90
68766;DHT22;55756;45.582;11.484;2022-11-20T05:31:24;5.40;85.40
68766;DHT22;55756;45.582;11.484;2022-11-20T05:33:50;5.40;85.80
68766;DHT22;55756;45.582;11.484;2022-11-20T05:36:17;5.40;85.80
68766;DHT22;55756;45.582;11.484;2022-11-20T05:38:43;5.50;85.60
68766;DHT22;55756;45.582;11.484;2022-11-20T05:41:17;5.50;85.50
68766;DHT22;55756;45.582;11.484;2022-11-20T05:43:44;5.50;85.50
68766;DHT22;55756;45.582;11.484;2022-11-20T05:46:12;5.50;85.60
68766;DHT22;55756;45.582;11.484;2022-11-20T05:48:40;5.50;85.30
68766;DHT22;55756;45.582;11.484;2022-11-20T05:51:09;5.50;85.40
68766;DHT22;55756;45.582;11.484;2022-11-20T05:53:35;5.40;85.30
68766;DHT22;55756;45.582;11.484;2022-11-20T05:56:07;5.40;85.50
68766;DHT22;55756;45.582;11.484;2022-11-20T05:58:36;5.40;85.30
68766;DHT22;55756;45.582;11.484;2022-11-20T06:01:11;5.40;85.20
68766;DHT22;55756;45.582;11.484;2022-11-20T06:03:38;5.40;85.20
68766;DHT22;55756;45.582;11.484;2022-11-20T06:06:05;5.40;85.00
68766;DHT22;55756;45.582;11.484;2022-11-20T06:08:32;5.40;85.00
68766;DHT22;55756;45.582;11.484;2022-11-20T06:10:58;5.30;85.10
68766;DHT22;55756;45.582;11.484;2022-11-20T06:13:28;5.30;84.90
68766;DHT22;55756;45.582;11.484;2022-11-20T06:15:53;5.30;84.70
68766;DHT22;55756;45.582;11.484;2022-11-20T06:18:19;5.30;84.60
68766;DHT22;55756;45.582;11.484;2022-11-20T06:20:46;5.30;84.60
68766;DHT22;55756;45.582;11.484;2022-11-20T06:23:12;5.30;84.50
68766;DHT22;55756;45.582;11.484;2022-11-20T06:25:42;5.30;84.50
68766;DHT22;55756;45.582;11.484;2022-11-20T06:28:08;5.30;84.50
68766;DHT22;55756;45.582;11.484;2022-11-20T06:30:35;5.20;84.60
68766;DHT22;55756;45.582;11.484;2022-11-20T06:33:01;5.20;84.70
68766;DHT22;55756;45.582;11.484;2022-11-20T06:35:26;5.30;84.50
68766;DHT22;55756;45.582;11.484;2022-11-20T06:37:52;5.30;84.60
68766;DHT22;55756;45.582;11.484;2022-11-20T06:40:18;5.30;84.50
68766;DHT22;55756;45.582;11.484;2022-11-20T06:42:44;5.30;84.50
68766;DHT22;55756;45.582;11.484;2022-11-20T06:45:10;5.40;84.70
68766;DHT22;55756;45.582;11.484;2022-11-20T06:47:36;5.50;84.50
68766;DHT22;55756;45.582;11.484;2022-11-20T06:50:02;5.50;84.20
68766;DHT22;55756;45.582;11.484;2022-11-20T06:52:28;5.60;84.10
68766;DHT22;55756;45.582;11.484;2022-11-20T06:54:53;5.60;84.20
68766;DHT22;55756;45.582;11.484;2022-11-20T06:57:19;5.60;84.00
68766;DHT22;55756;45.582;11.484;2022-11-20T06:59:45;5.70;83.90
68766;DHT22;55756;45.582;11.484;2022-11-20T07:02:12;5.70;83.50
68766;DHT22;55756;45.582;11.484;2022-11-20T07:04:38;5.70;83.40
68766;DHT22;55756;45.582;11.484;2022-11-20T07:07:04;5.80;83.20
68766;DHT22;55756;45.582;11.484;2022-11-20T07:09:32;5.90;83.20
68766;DHT22;55756;45.582;11.484;2022-11-20T07:11:59;6.00;83.00
68766;DHT22;55756;45.582;11.484;2022-11-20T07:14:24;6.10;82.90
68766;DHT22;55756;45.582;11.484;2022-11-20T07:16:50;6.20;82.90
68766;DHT22;55756;45.582;11.484;2022-11-20T07:19:16;6.30;83.00
68766;DHT22;55756;45.582;11.484;2022-11-20T07:21:42;6.40;82.70
68766;DHT22;55756;45.582;11.484;2022-11-20T07:24:08;6.50;82.50
68766;DHT22;55756;45.582;11.484;2022-11-20T07:26:34;6.70;82.70
68766;DHT22;55756;45.582;11.484;2022-11-20T07:29:00;7.00;82.50
68766;DHT22;55756;45.582;11.484;2022-11-20T07:31:26;7.30;81.70
68766;DHT22;55756;45.582;11.484;2022-11-20T07:33:52;7.60;80.90
68766;DHT22;55756;45.582;11.484;2022-11-20T07:36:18;8.30;80.00
68766;DHT22;55756;45.582;11.484;2022-11-20T07:38:44;9.00;78.00
68766;DHT22;55756;45.582;11.484;2022-11-20T07:41:10;9.60;75.80
68766;DHT22;55756;45.582;11.484;2022-11-20T07:43:36;10.20;73.50
68766;DHT22;55756;45.582;11.484;2022-11-20T07:46:02;10.80;71.50
68766;DHT22;55756;45.582;11.484;2022-11-20T07:48:29;11.20;69.00
68766;DHT22;55756;45.582;11.484;2022-11-20T07:50:56;11.70;67.30
68766;DHT22;55756;45.582;11.484;2022-11-20T07:53:22;12.10;65.70
68766;DHT22;55756;45.582;11.484;2022-11-20T07:55:49;12.50;64.90
68766;DHT22;55756;45.582;11.484;2022-11-20T07:58:18;12.80;63.90
68766;DHT22;55756;45.582;11.484;2022-11-20T08:00:45;13.20;62.40
68766;DHT22;55756;45.582;11.484;2022-11-20T08:03:11;13.90;60.70
68766;DHT22;55756;45.582;11.484;2022-11-20T08:05:37;15.10;57.40
68766;DHT22;55756;45.582;11.484;2022-11-20T08:08:03;16.10;54.90
68766;DHT22;55756;45.582;11.484;2022-11-20T08:10:29;16.80;52.10
68766;DHT22;55756;45.582;11.484;2022-11-20T08:12:55;17.70;49.20
68766;DHT22;55756;45.582;11.484;2022-11-20T08:15:40;18.40;46.90
68766;DHT22;55756;45.582;11.484;2022-11-20T08:18:10;18.70;45.70
68766;DHT22;55756;45.582;11.484;2022-11-20T08:20:37;19.20;44.70
68766;DHT22;55756;45.582;11.484;2022-11-20T08:23:05;19.40;43.70
68766;DHT22;55756;45.582;11.484;2022-11-20T08:25:33;19.00;44.00
68766;DHT22;55756;45.582;11.484;2022-11-20T08:28:00;18.50;44.90
68766;DHT22;55756;45.582;11.484;2022-11-20T08:30:26;17.30;46.50
68766;DHT22;55756;45.582;11.484;2022-11-20T08:32:53;16.10;49.70
68766;DHT22;55756;45.582;11.484;2022-11-20T08:35:20;15.40;52.10
68766;DHT22;55756;45.582;11.484;2022-11-20T08:37:47;14.50;53.90
68766;DHT22;55756;45.582;11.484;2022-11-20T08:40:13;13.80;56.20
68766;DHT22;55756;45.582;11.484;2022-11-20T08:42:49;13.10;57.80
68766;DHT22;55756;45.582;11.484;2022-11-20T08:45:16;12.10;60.40
68766;DHT22;55756;45.582;11.484;2022-11-20T08:47:42;11.90;61.90
68766;DHT22;55756;45.582;11.484;2022-11-20T08:50:09;11.80;63.20
68766;DHT22;55756;45.582;11.484;2022-11-20T08:52:36;11.90;63.40
68766;DHT22;55756;45.582;11.484;2022-11-20T08:55:02;11.70;64.00
68766;DHT22;55756;45.582;11.484;2022-11-20T08:57:28;11.00;66.20
68766;DHT22;55756;45.582;11.484;2022-11-20T08:59:53;10.90;67.90
68766;DHT22;55756;45.582;11.484;2022-11-20T09:02:20;11.10;67.40
68766;DHT22;55756;45.582;11.484;2022-11-20T09:04:46;10.90;67.60
68766;DHT22;55756;45.582;11.484;2022-11-20T09:07:12;11.00;68.00
68766;DHT22;55756;45.582;11.484;2022-11-20T09:09:38;11.30;67.70
68766;DHT22;55756;45.582;11.484;2022-11-20T09:12:04;11.30;67.20
68766;DHT22;55756;45.582;11.484;2022-11-20T09:14:30;11.40;67.50
68766;DHT22;55756;45.582;11.484;2022-11-20T09:16:57;11.40;67.60
68766;DHT22;55756;45.582;11.484;2022-11-20T09:19:24;11.60;67.20
68766;DHT22;55756;45.582;11.484;2022-11-20T09:21:50;11.60;66.50
68766;DHT22;55756;45.582;11.484;2022-11-20T09:24:16;11.50;66.70
68766;DHT22;55756;45.582;11.484;2022-11-20T09:26:42;11.50;66.80
68766;DHT22;55756;45.582;11.484;2022-11-20T09:29:08;11.50;66.90
68766;DHT22;55756;45.582;11.484;2022-11-20T09:31:34;11.60;66.90
68766;DHT22;55756;45.582;11.484;2022-11-20T09:33:59;11.70;66.20
68766;DHT22;55756;45.582;11.484;2022-11-20T09:36:25;11.90;65.80
68766;DHT22;55756;45.582;11.484;2022-11-20T09:38:51;12.10;65.50
68766;DHT22;55756;45.582;11.484;2022-11-20T09:44:05;12.30;64.90
68766;DHT22;55756;45.582;11.484;2022-11-20T09:46:45;12.50;64.70
68766;DHT22;55756;45.582;11.484;2022-11-20T09:49:23;12.50;64.70
68766;DHT22;55756;45.582;11.484;2022-11-20T09:54:42;12.70;64.30
68766;DHT22;55756;45.582;11.484;2022-11-20T09:57:12;12.70;63.90
68766;DHT22;55756;45.582;11.484;2022-11-20T09:59:43;12.70;63.60
68766;DHT22;55756;45.582;11.484;2022-11-20T10:13:53;13.30;60.70
68766;DHT22;55756;45.582;11.484;2022-11-20T10:29:51;13.50;56.20
68766;DHT22;55756;45.582;11.484;2022-11-20T10:32:24;13.50;56.60
68766;DHT22;55756;45.582;11.484;2022-11-20T10:37:42;13.70;57.10
68766;DHT22;55756;45.582;11.484;2022-11-20T10:40:40;13.80;57.00
68766;DHT22;55756;45.582;11.484;2022-11-20T10:46:18;13.90;55.80
68766;DHT22;55756;45.582;11.484;2022-11-20T10:48:46;13.80;56.90
68766;DHT22;55756;45.582;11.484;2022-11-20T10:56:56;13.80;55.60
68766;DHT22;55756;45.582;11.484;2022-11-20T11:01:58;13.80;53.30
68766;DHT22;55756;45.582;11.484;2022-11-20T11:04:35;13.70;54.60
68766;DHT22;55756;45.582;11.484;2022-11-20T11:07:17;13.80;51.10
68766;DHT22;55756;45.582;11.484;2022-11-20T11:09:47;13.80;50.40
68766;DHT22;55756;45.582;11.484;2022-11-20T11:12:14;14.00;52.30
68766;DHT22;55756;45.582;11.484;2022-11-20T11:14:47;14.00;52.50
68766;DHT22;55756;45.582;11.484;2022-11-20T11:17:33;14.10;53.40
68766;DHT22;55756;45.582;11.484;2022-11-20T11:20:16;14.10;53.10
68766;DHT22;55756;45.582;11.484;2022-11-20T11:22:51;14.10;53.40
68766;DHT22;55756;45.582;11.484;2022-11-20T11:25:29;14.10;53.90
68766;DHT22;55756;45.582;11.484;2022-11-20T11:28:04;14.00;53.90
68766;DHT22;55756;45.582;11.484;2022-11-20T11:30:41;14.00;55.20
68766;DHT22;55756;45.582;11.484;2022-11-20T11:33:10;13.90;56.90
68766;DHT22;55756;45.582;11.484;2022-11-20T11:35:50;14.00;56.50
68766;DHT22;55756;45.582;11.484;2022-11-20T11:40:54;14.00;55.90
68766;DHT22;55756;45.582;11.484;2022-11-20T11:43:24;14.00;55.00
68766;DHT22;55756;45.582;11.484;2022-11-20T11:49:00;14.00;55.40
68766;DHT22;55756;45.582;11.484;2022-11-20T11:54:20;14.00;54.60
68766;DHT22;55756;45.582;11.484;2022-11-20T11:56:48;14.00;54.60
68766;DHT22;55756;45.582;11.484;2022-11-20T12:08:51;13.90;55.40
68766;DHT22;55756;45.582;11.484;2022-11-20T12:11:11;14.00;56.40
68766;DHT22;55756;45.582;11.484;2022-11-20T12:13:54;14.00;56.00
68766;DHT22;55756;45.582;11.484;2022-11-20T12:16:21;14.00;56.70
68766;DHT22;55756;45.582;11.484;2022-11-20T12:18:52;14.00;56.90
68766;DHT22;55756;45.582;11.484;2022-11-20T12:21:30;14.00;56.70
68766;DHT22;55756;45.582;11.484;2022-11-20T12:48:44;14.10;53.60
68766;DHT22;55756;45.582;11.484;2022-11-20T13:02:28;14.10;54.60
68766;DHT22;55756;45.582;11.484;2022-11-20T13:08:00;14.20;53.80
68766;DHT22;55756;45.582;11.484;2022-11-20T13:10:41;14.20;54.70
68766;DHT22;55756;45.582;11.484;2022-11-20T13:16:14;14.00;54.70
68766;DHT22;55756;45.582;11.484;2022-11-20T13:18:42;14.00;55.30
68766;DHT22;55756;45.582;11.484;2022-11-20T13:21:17;13.90;55.10
68766;DHT22;55756;45.582;11.484;2022-11-20T13:23:43;14.00;55.30
68766;DHT22;55756;45.582;11.484;2022-11-20T13:28:43;14.00;55.00
68766;DHT22;55756;45.582;11.484;2022-11-20T13:31:34;14.00;55.50
68766;DHT22;55756;45.582;11.484;2022-11-20T13:34:04;14.00;56.10
68766;DHT22;55756;45.582;11.484;2022-11-20T13:36:31;13.90;56.30
68766;DHT22;55756;45.582;11.484;2022-11-20T13:38:58;13.80;56.50
68766;DHT22;55756;45.582;11.484;2022-11-20T13:43:57;13.80;57.00
68766;DHT22;55756;45.582;11.484;2022-11-20T13:46:23;13.80;57.30
68766;DHT22;55756;45.582;11.484;2022-11-20T13:49:07;13.80;57.70
68766;DHT22;55756;45.582;11.484;2022-11-20T13:51:46;13.80;57.50
68766;DHT22;55756;45.582;11.484;2022-11-20T13:54:41;13.70;57.50
68766;DHT22;55756;45.582;11.484;2022-11-20T14:02:01;13.60;58.10
68766;DHT22;55756;45.582;11.484;2022-11-20T14:04:33;13.50;58.10
68766;DHT22;55756;45.582;11.484;2022-11-20T14:07:01;13.50;58.20
68766;DHT22;55756;45.582;11.484;2022-11-20T14:09:32;13.60;58.00
68766;DHT22;55756;45.582;11.484;2022-11-20T14:11:59;13.60;58.40
68766;DHT22;55756;45.582;11.484;2022-11-20T14:14:27;13.70;58.50
68766;DHT22;55756;45.582;11.484;2022-11-20T14:17:08;13.60;58.70
68766;DHT22;55756;45.582;11.484;2022-11-20T14:19:34;13.60;59.10
68766;DHT22;55756;45.582;11.484;2022-11-20T14:22:22;13.50;59.30
68766;DHT22;55756;45.582;11.484;2022-11-20T14:27:40;13.50;60.00
68766;DHT22;55756;45.582;11.484;2022-11-20T14:30:17;13.50;59.70
68766;DHT22;55756;45.582;11.484;2022-11-20T14:32:44;13.40;59.50
68766;DHT22;55756;45.582;11.484;2022-11-20T14:35:24;13.40;59.60
68766;DHT22;55756;45.582;11.484;2022-11-20T14:37:51;13.40;59.90
68766;DHT22;55756;45.582;11.484;2022-11-20T14:40:31;13.40;60.00
68766;DHT22;55756;45.582;11.484;2022-11-20T14:42:58;13.40;60.20
68766;DHT22;55756;45.582;11.484;2022-11-20T14:45:25;13.30;60.40
68766;DHT22;55756;45.582;11.484;2022-11-20T14:47:53;13.30;60.70
68766;DHT22;55756;45.582;11.484;2022-11-20T14:50:28;13.20;61.00
68766;DHT22;55756;45.582;11.484;2022-11-20T14:52:59;13.20;61.30
68766;DHT22;55756;45.582;11.484;2022-11-20T14:58:06;13.10;61.60
68766;DHT22;55756;45.582;11.484;2022-11-20T15:00:57;13.10;61.80
68766;DHT22;55756;45.582;11.484;2022-11-20T15:03:30;13.10;62.00
68766;DHT22;55756;45.582;11.484;2022-11-20T15:05:55;13.00;62.40
68766;DHT22;55756;45.582;11.484;2022-11-20T15:08:21;13.00;62.80
68766;DHT22;55756;45.582;11.484;2022-11-20T15:10:49;12.90;63.00
68766;DHT22;55756;45.582;11.484;2022-11-20T15:13:38;12.90;63.30
68766;DHT22;55756;45.582;11.484;2022-11-20T15:16:13;12.80;63.50
68766;DHT22;55756;45.582;11.484;2022-11-20T15:18:41;12.70;63.90
68766;DHT22;55756;45.582;11.484;2022-11-20T15:21:15;12.60;64.50
68766;DHT22;55756;45.582;11.484;2022-11-20T15:23:41;12.60;65.20
68766;DHT22;55756;45.582;11.484;2022-11-20T15:26:09;12.40;65.40
68766;DHT22;55756;45.582;11.484;2022-11-20T15:28:43;12.40;65.90
68766;DHT22;55756;45.582;11.484;2022-11-20T15:31:12;12.40;66.10
68766;DHT22;55756;45.582;11.484;2022-11-20T15:33:39;12.30;66.40
68766;DHT22;55756;45.582;11.484;2022-11-20T15:36:06;12.20;66.60
68766;DHT22;55756;45.582;11.484;2022-11-20T15:38:31;12.10;66.60
68766;DHT22;55756;45.582;11.484;2022-11-20T15:40:57;12.10;67.10
68766;DHT22;55756;45.582;11.484;2022-11-20T15:43:23;12.00;67.60
68766;DHT22;55756;45.582;11.484;2022-11-20T15:45:52;11.90;68.20
68766;DHT22;55756;45.582;11.484;2022-11-20T15:48:22;11.90;68.30
68766;DHT22;55756;45.582;11.484;2022-11-20T15:51:01;11.70;68.80
68766;DHT22;55756;45.582;11.484;2022-11-20T15:53:28;11.70;68.90
68766;DHT22;55756;45.582;11.484;2022-11-20T15:55:54;11.60;69.40
68766;DHT22;55756;45.582;11.484;2022-11-20T15:58:20;11.50;70.00
68766;DHT22;55756;45.582;11.484;2022-11-20T16:00:46;11.40;70.40
68766;DHT22;55756;45.582;11.484;2022-11-20T16:03:13;11.40;70.50
68766;DHT22;55756;45.582;11.484;2022-11-20T16:05:39;11.30;70.80
68766;DHT22;55756;45.582;11.484;2022-11-20T16:08:05;11.20;71.20
68766;DHT22;55756;45.582;11.484;2022-11-20T16:10:31;11.20;71.30
68766;DHT22;55756;45.582;11.484;2022-11-20T16:12:57;11.10;71.70
68766;DHT22;55756;45.582;11.484;2022-11-20T16:15:46;11.00;71.90
68766;DHT22;55756;45.582;11.484;2022-11-20T16:18:17;11.00;72.10
68766;DHT22;55756;45.582;11.484;2022-11-20T16:20:45;10.90;72.40
68766;DHT22;55756;45.582;11.484;2022-11-20T16:23:11;10.80;72.60
68766;DHT22;55756;45.582;11.484;2022-11-20T16:25:37;10.80;72.80
68766;DHT22;55756;45.582;11.484;2022-11-20T16:28:03;10.70;73.00
68766;DHT22;55756;45.582;11.484;2022-11-20T16:30:31;10.70;73.20
68766;DHT22;55756;45.582;11.484;2022-11-20T16:32:59;10.60;73.20
68766;DHT22;55756;45.582;11.484;2022-11-20T16:35:29;10.50;73.50
68766;DHT22;55756;45.582;11.484;2022-11-20T16:37:55;10.50;73.60
68766;DHT22;55756;45.582;11.484;2022-11-20T16:40:22;10.50;73.90
68766;DHT22;55756;45.582;11.484;2022-11-20T16:42:48;10.50;73.80
68766;DHT22;55756;45.582;11.484;2022-11-20T16:45:14;10.50;73.80
68766;DHT22;55756;45.582;11.484;2022-11-20T16:47:40;10.50;73.70
68766;DHT22;55756;45.582;11.484;2022-11-20T16:50:06;10.50;73.90
68766;DHT22;55756;45.582;11.484;2022-11-20T16:52:32;10.40;73.80
68766;DHT22;55756;45.582;11.484;2022-11-20T16:54:58;10.40;73.90
68766;DHT22;55756;45.582;11.484;2022-11-20T16:57:26;10.40;74.40
68766;DHT22;55756;45.582;11.484;2022-11-20T16:59:52;10.30;74.80
68766;DHT22;55756;45.582;11.484;2022-11-20T17:02:18;10.30;74.80
68766;DHT22;55756;45.582;11.484;2022-11-20T17:04:44;10.30;75.30
68766;DHT22;55756;45.582;11.484;2022-11-20T17:07:09;10.30;75.10
68766;DHT22;55756;45.582;11.484;2022-11-20T17:09:37;10.30;75.00
68766;DHT22;55756;45.582;11.484;2022-11-20T17:12:04;10.40;74.80
68766;DHT22;55756;45.582;11.484;2022-11-20T17:14:30;10.40;74.90
68766;DHT22;55756;45.582;11.484;2022-11-20T17:16:56;10.30;74.80
68766;DHT22;55756;45.582;11.484;2022-11-20T17:19:22;10.30;74.80
68766;DHT22;55756;45.582;11.484;2022-11-20T17:21:48;10.30;74.90
68766;DHT22;55756;45.582;11.484;2022-11-20T17:24:14;10.20;75.00
68766;DHT22;55756;45.582;11.484;2022-11-20T17:26:43;10.10;75.10
68766;DHT22;55756;45.582;11.484;2022-11-20T17:29:14;10.00;75.20
68766;DHT22;55756;45.582;11.484;2022-11-20T17:31:41;10.00;75.30
68766;DHT22;55756;45.582;11.484;2022-11-20T17:34:10;10.00;75.50